Time;durP1;ratioP1;P1;durP2;ratioP2;P2;SDS_P1;SDS_P2;PMS_P1;PMS_P2;Temp;Humidity;BMP_temperature;BMP_pressure;BME280_temperature;BME280_humidity;BME280_pressure;Samples;Min_cycle;Max_cycle;Signal;HPM_P1;HPM_P2
2023/09/01 00:00:19;;;;;;;;;;;;;;;27.23;43.02;94308.13;4970442;28;7011;-55
2023/09/01 00:02:58;;;;;;;;;;;;;;;27.23;43.05;94311.63;4963705;28;8762;-55
2023/09/01 00:06:02;;;;;;;;;;;;;;;27.25;42.98;94302.84;4970495;28;7270;-55
2023/09/01 00:08:31;;;;;;;;;;;;;;;27.25;42.89;94311.13;4960787;28;7042;-55
2023/09/01 00:11:38;;;;;;;;;;;;;;;27.25;42.64;94300.81;4972808;28;8227;-55
2023/09/01 00:14:14;;;;;;;;;;;;;;;27.24;42.94;94307.59;5011243;28;7282;-55
2023/09/01 00:16:50;;;;;;;;;;;;;;;27.24;43.01;94310.38;5024903;28;7270;-55
2023/09/01 00:19:35;;;;;;;;;;;;;;;27.24;43.14;94307.59;5018856;28;7250;-55
2023/09/01 00:22:02;;;;;;;;;;;;;;;27.21;43.01;94302.41;5046118;28;8731;-55
2023/09/01 00:24:51;;;;;;;;;;;;;;;27.23;42.73;94300.59;5016989;28;7154;-55
2023/09/01 00:27:28;;;;;;;;;;;;;;;27.20;42.77;94289.84;5040942;28;7222;-55
2023/09/01 00:29:56;;;;;;;;;;;;;;;27.21;42.73;94296.88;5015721;28;7222;-56
2023/09/01 00:32:27;;;;;;;;;;;;;;;27.17;43.08;94291.63;5033098;28;7238;-55
2023/09/01 00:35:25;;;;;;;;;;;;;;;27.20;42.98;94296.13;5041417;28;7457;-55
2023/09/01 00:38:24;;;;;;;;;;;;;;;27.19;42.73;94294.63;4969674;28;7281;-55
2023/09/01 00:40:52;;;;;;;;;;;;;;;27.19;43.09;94291.84;4950762;28;8749;-55
2023/09/01 00:44:04;;;;;;;;;;;;;;;27.21;42.99;94289.31;4941802;28;7172;-55
2023/09/01 00:46:46;;;;;;;;;;;;;;;27.20;42.62;94293.34;4913914;29;7216;-55
2023/09/01 00:50:07;;;;;;;;;;;;;;;27.22;42.82;94293.59;4877675;29;9091;-55
2023/09/01 00:52:47;;;;;;;;;;;;;;;27.21;43.20;94292.06;4875474;29;8770;-55
2023/09/01 00:55:15;;;;;;;;;;;;;;;27.20;42.59;94295.38;4861898;29;9129;-55
2023/09/01 00:57:53;;;;;;;;;;;;;;;27.19;42.83;94289.09;4861130;29;7404;-55
2023/09/01 01:00:32;;;;;;;;;;;;;;;27.20;42.74;94284.31;4880294;29;7262;-65
2023/09/01 01:03:06;;;;;;;;;;;;;;;27.18;43.01;94286.88;4885207;29;7300;-65
2023/09/01 01:05:57;;;;;;;;;;;;;;;27.19;43.41;94277.28;4874794;29;7068;-61
2023/09/01 01:08:34;;;;;;;;;;;;;;;27.19;42.76;94277.28;4875347;29;8756;-61
2023/09/01 01:11:11;;;;;;;;;;;;;;;27.19;42.53;94282.81;4875607;29;7253;-61
2023/09/01 01:13:46;;;;;;;;;;;;;;;27.18;42.84;94278.59;4885119;29;7398;-61
2023/09/01 01:16:17;;;;;;;;;;;;;;;27.15;42.63;94277.63;4894999;29;7283;-61
2023/09/01 01:18:54;;;;;;;;;;;;;;;27.20;42.89;94276.78;4948413;28;6920;-61
2023/09/01 01:21:41;;;;;;;;;;;;;;;27.23;42.30;94272.97;4951237;28;9084;-61
2023/09/01 01:24:19;;;;;;;;;;;;;;;27.25;42.71;94278.72;5018097;28;8425;-61
2023/09/01 01:26:46;;;;;;;;;;;;;;;27.26;42.58;94276.69;5044094;28;7712;-61
2023/09/01 01:29:26;;;;;;;;;;;;;;;27.26;42.11;94276.69;5055877;28;6999;-61
2023/09/01 01:31:59;;;;;;;;;;;;;;;27.27;42.48;94273.44;5059582;28;7465;-61
2023/09/01 01:34:35;;;;;;;;;;;;;;;27.29;42.71;94273.66;5038585;28;7222;-61
2023/09/01 01:37:49;;;;;;;;;;;;;;;27.30;42.37;94280.66;5021907;28;7010;-61
2023/09/01 01:40:22;;;;;;;;;;;;;;;27.27;42.41;94278.19;5036178;28;8667;-61
2023/09/01 01:43:00;;;;;;;;;;;;;;;27.29;42.44;94281.94;5038801;28;8724;-61
2023/09/01 01:45:38;;;;;;;;;;;;;;;27.30;42.53;94279.91;5043353;28;7235;-61
2023/09/01 01:48:09;;;;;;;;;;;;;;;27.28;42.56;94274.91;5055327;28;8945;-61
2023/09/01 01:50:55;;;;;;;;;;;;;;;27.28;42.46;94280.44;5040102;28;7325;-61
2023/09/01 01:53:37;;;;;;;;;;;;;;;27.25;42.32;94270.44;5039760;28;8124;-61
2023/09/01 01:56:35;;;;;;;;;;;;;;;27.29;42.55;94273.66;5057280;28;7088;-61
2023/09/01 01:59:04;;;;;;;;;;;;;;;27.28;42.45;94271.41;5035757;28;7231;-61
2023/09/01 02:01:39;;;;;;;;;;;;;;;27.26;42.56;94260.88;5057632;28;7391;-61
2023/09/01 02:04:23;;;;;;;;;;;;;;;27.29;42.32;94261.84;5037501;28;7005;-61
2023/09/01 02:06:52;;;;;;;;;;;;;;;27.26;42.70;94268.41;5053589;28;9357;-62
2023/09/01 02:09:19;;;;;;;;;;;;;;;27.26;42.83;94262.88;5049196;28;7233;-61
2023/09/01 02:11:54;;;;;;;;;;;;;;;27.25;42.30;94255.91;5052482;28;9225;-61
2023/09/01 02:14:20;;;;;;;;;;;;;;;27.25;42.48;94259.38;5043151;28;7489;-65
2023/09/01 02:16:46;;;;;;;;;;;;;;;27.25;42.56;94247.59;5065812;28;9184;-65
2023/09/01 02:19:14;;;;;;;;;;;;;;;27.27;42.24;94261.63;5042780;28;7746;-65
2023/09/01 02:21:41;;;;;;;;;;;;;;;27.26;42.33;94254.59;5050056;28;9140;-65
2023/09/01 02:24:06;;;;;;;;;;;;;;;27.27;42.77;94267.16;5052885;28;8581;-65
2023/09/01 02:26:36;;;;;;;;;;;;;;;27.28;42.25;94255.56;5054993;28;7244;-65
2023/09/01 02:29:05;;;;;;;;;;;;;;;27.27;42.80;94261.63;5056694;28;8789;-65
2023/09/01 02:31:35;;;;;;;;;;;;;;;27.27;42.69;94264.41;5056520;28;6997;-65
2023/09/01 02:34:04;;;;;;;;;;;;;;;27.27;42.42;94256.88;5052167;28;7240;-65
2023/09/01 02:36:33;;;;;;;;;;;;;;;27.28;42.54;94268.63;5045678;28;8856;-65
2023/09/01 02:38:59;;;;;;;;;;;;;;;27.26;42.81;94260.13;5037213;28;9541;-65
2023/09/01 02:41:26;;;;;;;;;;;;;;;27.27;42.58;94265.16;5048405;28;7240;-65
2023/09/01 02:43:53;;;;;;;;;;;;;;;27.25;42.45;94267.66;5057536;28;7023;-65
2023/09/01 02:46:20;;;;;;;;;;;;;;;27.25;42.41;94267.66;5069652;28;8234;-64
2023/09/01 02:48:49;;;;;;;;;;;;;;;27.25;42.35;94264.91;5042486;28;7226;-65
2023/09/01 02:51:17;;;;;;;;;;;;;;;27.26;42.23;94271.19;5062671;28;9341;-65
2023/09/01 02:53:43;;;;;;;;;;;;;;;27.23;42.48;94259.16;5061688;28;7267;-65
2023/09/01 02:56:09;;;;;;;;;;;;;;;27.21;42.46;94261.69;5043489;28;9115;-65
2023/09/01 02:58:36;;;;;;;;;;;;;;;27.25;42.43;94270.44;5049659;28;7518;-65
2023/09/01 03:01:07;;;;;;;;;;;;;;;27.25;42.55;94267.66;5039582;28;7192;-65
2023/09/01 03:03:34;;;;;;;;;;;;;;;27.23;42.53;94263.97;5058162;28;9170;-64
2023/09/01 03:06:00;;;;;;;;;;;;;;;27.23;42.61;94261.91;5053800;28;7421;-65
2023/09/01 03:08:27;;;;;;;;;;;;;;;27.24;42.72;94265.44;5042463;28;9120;-65
2023/09/01 03:10:53;;;;;;;;;;;;;;;27.21;42.46;94261.69;5054593;28;7770;-65
2023/09/01 03:13:20;;;;;;;;;;;;;;;27.22;42.53;94257.69;5054614;28;9104;-65
2023/09/01 03:15:48;;;;;;;;;;;;;;;27.26;42.43;94271.94;5065345;28;9046;-65
2023/09/01 03:18:15;;;;;;;;;;;;;;;27.21;42.35;94261.69;5048952;28;7097;-65
2023/09/01 03:20:41;;;;;;;;;;;;;;;27.20;42.23;94257.47;5039160;28;7267;-65
2023/09/01 03:23:08;;;;;;;;;;;;;;;27.18;42.55;94259.25;5036983;28;9061;-65
2023/09/01 03:25:36;;;;;;;;;;;;;;;27.13;42.64;94258.06;5050901;28;7175;-64
2023/09/01 03:28:02;;;;;;;;;;;;;;;27.13;42.60;94254.56;5042021;28;7253;-64
2023/09/01 03:30:28;;;;;;;;;;;;;;;27.11;42.47;94257.09;5042407;28;7113;-63
2023/09/01 03:32:55;;;;;;;;;;;;;;;27.07;42.99;94253.91;5060215;28;7089;-63
2023/09/01 03:35:22;;;;;;;;;;;;;;;27.09;42.66;94252.09;5048419;28;7512;-64
2023/09/01 03:37:49;;;;;;;;;;;;;;;27.06;42.94;94253.13;5056224;28;8533;-63
2023/09/01 03:40:16;;;;;;;;;;;;;;;27.07;42.82;94253.91;5053764;28;7055;-64
2023/09/01 03:42:44;;;;;;;;;;;;;;;27.06;42.76;94253.13;5055714;28;7037;-64
2023/09/01 03:45:14;;;;;;;;;;;;;;;27.08;42.52;94247.84;5064313;28;7221;-64
2023/09/01 03:47:40;;;;;;;;;;;;;;;27.08;42.91;94250.59;5040543;28;7198;-64
2023/09/01 03:50:08;;;;;;;;;;;;;;;27.08;43.17;94249.88;5058035;28;8571;-64
2023/09/01 03:52:34;;;;;;;;;;;;;;;27.07;42.74;94248.38;5038269;28;7066;-64
2023/09/01 03:55:02;;;;;;;;;;;;;;;27.04;42.67;94243.88;5039427;28;9112;-64
2023/09/01 03:57:33;;;;;;;;;;;;;;;27.04;42.76;94250.16;5035830;28;9320;-64
2023/09/01 03:59:59;;;;;;;;;;;;;;;27.05;42.83;94256.44;5035894;28;7568;-64
2023/09/01 04:02:37;;;;;;;;;;;;;;;27.03;42.23;94248.69;5055094;28;9155;-64
2023/09/01 04:05:12;;;;;;;;;;;;;;;27.05;42.45;94259.94;5049443;28;9113;-64
2023/09/01 04:07:43;;;;;;;;;;;;;;;27.03;42.58;94256.22;5073427;28;7231;-64
2023/09/01 04:10:19;;;;;;;;;;;;;;;27.06;43.05;94257.91;5044441;28;7113;-64
2023/09/01 04:12:50;;;;;;;;;;;;;;;27.05;43.15;94256.44;5052305;28;7221;-64
2023/09/01 04:15:18;;;;;;;;;;;;;;;27.03;42.66;94256.22;5042641;28;6974;-64
2023/09/01 04:18:19;;;;;;;;;;;;;;;27.03;43.00;94262.47;5036579;28;7230;-64
2023/09/01 04:21:14;;;;;;;;;;;;;;;27.01;42.82;94262.25;4991797;28;7238;-64
2023/09/01 04:23:58;;;;;;;;;;;;;;;27.00;42.99;94260.75;4979053;28;7014;-64
2023/09/01 04:26:40;;;;;;;;;;;;;;;27.01;42.67;94267.78;4965435;28;7166;-64
2023/09/01 04:29:08;;;;;;;;;;;;;;;27.02;42.95;94260.97;4985772;28;7044;-63
2023/09/01 04:32:03;;;;;;;;;;;;;;;27.01;42.94;94258.75;4981739;28;6986;-63
2023/09/01 04:34:43;;;;;;;;;;;;;;;26.97;42.85;94252.78;4975678;28;7374;-60
2023/09/01 04:37:34;;;;;;;;;;;;;;;27.00;42.91;94260.75;4965231;28;7150;-60
2023/09/01 04:40:07;;;;;;;;;;;;;;;26.99;42.35;94261.28;4989379;28;6998;-60
2023/09/01 04:42:35;;;;;;;;;;;;;;;27.00;42.42;94262.78;4975995;28;9353;-61
2023/09/01 04:45:32;;;;;;;;;;;;;;;27.01;43.28;94267.03;4965507;28;7019;-61
2023/09/01 04:48:14;;;;;;;;;;;;;;;26.98;42.90;94260.53;4975623;28;6902;-61
2023/09/01 04:50:42;;;;;;;;;;;;;;;26.99;43.00;94262.03;4971791;28;7181;-60
2023/09/01 04:53:09;;;;;;;;;;;;;;;26.98;42.84;94263.31;4974171;28;7128;-61
2023/09/01 04:55:39;;;;;;;;;;;;;;;27.00;43.13;94269.03;5030014;28;7326;-60
2023/09/01 04:58:18;;;;;;;;;;;;;;;27.00;43.06;94271.81;5044965;28;9644;-61
2023/09/01 05:00:58;;;;;;;;;;;;;;;26.98;42.82;94266.06;5063225;28;8760;-61
2023/09/01 05:03:27;;;;;;;;;;;;;;;26.97;43.20;94264.56;5064983;28;8909;-60
2023/09/01 05:06:06;;;;;;;;;;;;;;;26.92;43.02;94262.63;5052126;28;7223;-60
2023/09/01 05:08:45;;;;;;;;;;;;;;;26.92;43.10;94268.16;5041474;28;9088;-60
2023/09/01 05:11:12;;;;;;;;;;;;;;;26.95;43.34;94266.38;5038082;28;9225;-60
2023/09/01 05:13:52;;;;;;;;;;;;;;;26.97;43.21;94264.56;5063177;28;8068;-60
2023/09/01 05:16:31;;;;;;;;;;;;;;;26.95;43.50;94263.59;5053504;28;8457;-60
2023/09/01 05:19:11;;;;;;;;;;;;;;;26.96;42.86;94260.31;5052047;28;7289;-60
2023/09/01 05:21:48;;;;;;;;;;;;;;;26.97;42.70;94255.56;5057073;28;7149;-60
2023/09/01 05:24:25;;;;;;;;;;;;;;;27.00;42.58;94271.03;5061439;28;9508;-60
2023/09/01 05:27:01;;;;;;;;;;;;;;;26.97;43.00;94261.78;5059818;28;7233;-60
2023/09/01 05:29:30;;;;;;;;;;;;;;;26.97;43.11;94259.03;5048044;28;7427;-60
2023/09/01 05:32:05;;;;;;;;;;;;;;;26.95;43.01;94258.81;5063984;28;9068;-60
2023/09/01 05:34:31;;;;;;;;;;;;;;;26.94;43.00;94262.09;5048556;28;7110;-60
2023/09/01 05:37:07;;;;;;;;;;;;;;;26.95;42.91;94267.09;5048550;28;9069;-60
2023/09/01 05:39:37;;;;;;;;;;;;;;;26.96;43.10;94268.59;5040810;28;7274;-60
2023/09/01 05:42:09;;;;;;;;;;;;;;;26.97;42.78;94272.13;5061119;28;7200;-60
2023/09/01 05:44:42;;;;;;;;;;;;;;;26.97;43.20;94274.88;5052369;28;8980;-61
2023/09/01 05:47:40;;;;;;;;;;;;;;;26.97;42.97;94278.34;5048387;28;9011;-61
2023/09/01 05:50:18;;;;;;;;;;;;;;;26.98;42.59;94282.63;4996380;28;7181;-61
2023/09/01 05:52:45;;;;;;;;;;;;;;;26.96;42.51;94281.66;4993514;28;9099;-60
2023/09/01 05:55:18;;;;;;;;;;;;;;;26.95;42.26;94283.66;5006013;28;9227;-61
2023/09/01 05:58:11;;;;;;;;;;;;;;;26.97;42.41;94289.41;4999814;28;6991;-60
2023/09/01 06:00:49;;;;;;;;;;;;;;;26.96;42.27;94298.97;5007126;28;8801;-61
2023/09/01 06:03:28;;;;;;;;;;;;;;;26.94;42.58;94295.22;5006737;28;7085;-61
2023/09/01 06:06:07;;;;;;;;;;;;;;;26.92;42.20;94279.91;5000380;28;6988;-61
2023/09/01 06:08:56;;;;;;;;;;;;;;;26.95;42.19;94286.41;5018525;28;10088;-61
2023/09/01 06:11:24;;;;;;;;;;;;;;;26.96;42.67;94293.44;4996757;28;7265;-61
2023/09/01 06:14:01;;;;;;;;;;;;;;;26.92;42.47;94287.47;5006953;28;8774;-61
2023/09/01 06:16:27;;;;;;;;;;;;;;;26.91;42.63;94291.50;4990492;28;8808;-61
2023/09/01 06:19:26;;;;;;;;;;;;;;;26.92;42.91;94304.75;5015995;28;9010;-61
2023/09/01 06:22:00;;;;;;;;;;;;;;;26.94;42.77;94298.75;4957192;28;7108;-60
2023/09/01 06:24:45;;;;;;;;;;;;;;;26.96;42.93;94303.72;4946293;28;7279;-60
2023/09/01 06:27:27;;;;;;;;;;;;;;;26.94;42.52;94298.75;4997913;28;8795;-61
2023/09/01 06:29:55;;;;;;;;;;;;;;;26.97;42.83;94308.00;5007102;28;9081;-61
2023/09/01 06:32:21;;;;;;;;;;;;;;;26.96;42.50;94307.25;4997461;28;9159;-61
2023/09/01 06:34:49;;;;;;;;;;;;;;;26.95;42.84;94302.97;4999188;28;7105;-61
2023/09/01 06:37:26;;;;;;;;;;;;;;;26.96;43.12;94303.72;4996672;28;7356;-61
2023/09/01 06:39:53;;;;;;;;;;;;;;;26.92;43.16;94293.72;4989380;28;7343;-60
2023/09/01 06:42:30;;;;;;;;;;;;;;;26.95;43.10;94302.97;5008483;28;7313;-61
2023/09/01 06:45:08;;;;;;;;;;;;;;;26.97;43.08;94300.44;4991458;28;9103;-61
2023/09/01 06:47:35;;;;;;;;;;;;;;;26.98;43.21;94310.22;4998069;28;8965;-61
2023/09/01 06:50:07;;;;;;;;;;;;;;;27.01;43.13;94311.94;5011296;28;9366;-61
2023/09/01 06:52:38;;;;;;;;;;;;;;;27.00;43.22;94304.94;5005352;28;9153;-61
2023/09/01 06:55:05;;;;;;;;;;;;;;;27.03;43.27;94306.66;4989592;28;7009;-61
2023/09/01 06:57:39;;;;;;;;;;;;;;;27.05;43.78;94301.34;5020506;28;9020;-61
2023/09/01 07:00:17;;;;;;;;;;;;;;;27.06;43.23;94307.59;5055253;28;7174;-60
2023/09/01 07:02:49;;;;;;;;;;;;;;;27.06;43.42;94313.13;5041369;28;8010;-60
2023/09/01 07:05:17;;;;;;;;;;;;;;;27.04;43.26;94312.91;5050061;28;7349;-60
2023/09/01 07:07:43;;;;;;;;;;;;;;;27.05;43.31;94315.16;5048305;28;8777;-60
2023/09/01 07:10:13;;;;;;;;;;;;;;;26.99;43.79;94310.97;5043942;28;7076;-61
2023/09/01 07:12:39;;;;;;;;;;;;;;;27.03;43.27;94323.22;5048032;28;7049;-60
2023/09/01 07:15:05;;;;;;;;;;;;;;;27.03;43.12;94317.69;5062094;28;7248;-60
2023/09/01 07:17:31;;;;;;;;;;;;;;;27.04;43.23;94321.94;5050481;28;7068;-61
2023/09/01 07:20:02;;;;;;;;;;;;;;;27.01;43.36;94319.47;5045329;28;9095;-60
2023/09/01 07:22:32;;;;;;;;;;;;;;;27.03;43.07;94325.22;5063069;28;8781;-61
2023/09/01 07:25:27;;;;;;;;;;;;;;;27.02;43.18;94324.47;5049728;28;6990;-60
2023/09/01 07:28:06;;;;;;;;;;;;;;;27.04;43.20;94332.97;4950423;28;7055;-60
2023/09/01 07:30:42;;;;;;;;;;;;;;;27.00;43.46;94329.78;4968395;28;9239;-61
2023/09/01 07:33:17;;;;;;;;;;;;;;;27.01;43.25;94328.50;4947674;28;9111;-60
2023/09/01 07:35:50;;;;;;;;;;;;;;;27.04;43.15;94323.94;4963322;28;9079;-61
2023/09/01 07:38:17;;;;;;;;;;;;;;;27.07;43.17;94331.94;4955319;28;7315;-61
2023/09/01 07:40:44;;;;;;;;;;;;;;;27.05;43.38;94328.97;4964165;28;9057;-60
2023/09/01 07:43:11;;;;;;;;;;;;;;;27.09;43.14;94329.41;4968329;28;6979;-60
2023/09/01 07:45:48;;;;;;;;;;;;;;;27.06;43.45;94330.44;4953259;28;7259;-60
2023/09/01 07:48:14;;;;;;;;;;;;;;;27.02;43.64;94338.28;4941778;28;7222;-60
2023/09/01 07:50:47;;;;;;;;;;;;;;;27.04;43.02;94335.75;4946518;28;7258;-60
2023/09/01 07:53:12;;;;;;;;;;;;;;;27.05;43.26;94342.75;4967720;28;7618;-60
2023/09/01 07:55:41;;;;;;;;;;;;;;;27.06;43.45;94346.25;4952207;28;7347;-60
2023/09/01 07:58:08;;;;;;;;;;;;;;;27.08;43.16;94349.97;4944209;28;7695;-60
2023/09/01 08:00:37;;;;;;;;;;;;;;;27.07;43.23;94340.22;4960662;28;7142;-60
2023/09/01 08:03:16;;;;;;;;;;;;;;;27.08;43.10;94344.47;4947634;28;9067;-60
2023/09/01 08:06:04;;;;;;;;;;;;;;;27.08;43.74;94341.69;5060632;28;7251;-63
2023/09/01 08:08:30;;;;;;;;;;;;;;;27.06;43.37;94349.75;5062888;28;9051;-63
2023/09/01 08:11:26;;;;;;;;;;;;;;;27.05;43.40;94353.81;5051620;28;7225;-62
2023/09/01 08:14:07;;;;;;;;;;;;;;;27.06;43.95;94355.28;4989169;28;7099;-62
2023/09/01 08:16:38;;;;;;;;;;;;;;;27.07;43.39;94358.81;4973064;28;7002;-63
2023/09/01 08:19:04;;;;;;;;;;;;;;;27.06;43.40;94357.28;4989064;28;6999;-63
2023/09/01 08:21:34;;;;;;;;;;;;;;;27.03;43.09;94348.06;4990389;28;7144;-62
2023/09/01 08:24:18;;;;;;;;;;;;;;;27.08;43.51;94357.53;4979972;28;7522;-63
2023/09/01 08:26:44;;;;;;;;;;;;;;;27.08;43.29;94354.78;4981527;28;7395;-63
2023/09/01 08:29:30;;;;;;;;;;;;;;;27.07;43.21;94362.31;4990950;28;8747;-62
2023/09/01 08:32:17;;;;;;;;;;;;;;;27.06;43.09;94357.28;4989994;28;8744;-61
2023/09/01 08:34:55;;;;;;;;;;;;;;;27.05;43.39;94356.56;4983669;28;9086;-62
2023/09/01 08:37:33;;;;;;;;;;;;;;;27.09;43.47;94361.78;4990796;28;9349;-62
2023/09/01 08:40:11;;;;;;;;;;;;;;;27.11;43.45;94362.75;4987354;28;7277;-61
2023/09/01 08:42:57;;;;;;;;;;;;;;;27.11;42.63;94354.47;4990755;28;9840;-62
2023/09/01 08:45:28;;;;;;;;;;;;;;;27.14;43.70;94358.97;4999525;28;7251;-63
2023/09/01 08:48:05;;;;;;;;;;;;;;;27.14;42.79;94353.44;4991895;28;7228;-63
2023/09/01 08:50:40;;;;;;;;;;;;;;;27.15;43.07;94365.97;5024574;28;7429;-63
2023/09/01 08:53:40;;;;;;;;;;;;;;;27.17;43.09;94363.44;5045512;28;8774;-62
2023/09/01 08:56:07;;;;;;;;;;;;;;;27.18;42.94;94359.41;5008481;28;9047;-63
2023/09/01 08:58:36;;;;;;;;;;;;;;;27.18;43.21;94358.66;5015061;28;7252;-62
2023/09/01 09:04:34;;;;;;;;;;;;;;;27.16;42.97;94356.44;5025403;28;7026;-62
2023/09/01 09:07:20;;;;;;;;;;;;;;;27.16;42.99;94356.44;5012206;28;6997;-61
2023/09/01 09:09:55;;;;;;;;;;;;;;;27.18;42.99;94359.41;5013981;28;9405;-62
2023/09/01 09:12:26;;;;;;;;;;;;;;;27.16;43.22;94359.19;5022267;28;9413;-61
2023/09/01 09:14:52;;;;;;;;;;;;;;;27.19;42.85;94358.13;5010913;28;6984;-57
2023/09/01 09:17:23;;;;;;;;;;;;;;;27.20;43.07;94362.41;5003893;28;7379;-57
2023/09/01 09:19:53;;;;;;;;;;;;;;;27.21;42.64;94363.16;5010078;28;7272;-57
2023/09/01 09:22:29;;;;;;;;;;;;;;;27.23;42.90;94364.09;5010250;28;9026;-57
2023/09/01 09:25:49;;;;;;;;;;;;;;;27.25;42.72;94367.06;5008287;28;7296;-57
2023/09/01 09:28:48;;;;;;;;;;;;;;;27.26;42.89;94360.31;5019828;28;9468;-57
2023/09/01 09:31:28;;;;;;;;;;;;;;;27.25;42.74;94358.78;5025208;28;7267;-57
2023/09/01 09:34:12;;;;;;;;;;;;;;;27.27;42.68;94359.03;5057944;28;7151;-57
2023/09/01 09:36:41;;;;;;;;;;;;;;;27.29;42.82;94364.03;5038925;28;9066;-57
2023/09/01 09:39:23;;;;;;;;;;;;;;;27.29;42.56;94353.75;5051101;28;9149;-57
2023/09/01 09:42:02;;;;;;;;;;;;;;;27.29;42.53;94353.75;5037956;28;9613;-57
2023/09/01 09:44:33;;;;;;;;;;;;;;;27.28;42.16;94362.53;5048064;28;9415;-57
2023/09/01 09:47:09;;;;;;;;;;;;;;;27.28;42.48;94355.00;5057927;28;7520;-57
2023/09/01 09:49:45;;;;;;;;;;;;;;;27.30;42.69;94354.47;5047651;28;8729;-57
2023/09/01 09:52:46;;;;;;;;;;;;;;;27.29;42.43;94364.03;5038713;28;7238;-57
2023/09/01 09:55:25;;;;;;;;;;;;;;;27.25;42.30;94352.53;5013329;28;7304;-57
2023/09/01 09:58:02;;;;;;;;;;;;;;;27.28;42.26;94352.22;4986152;28;7092;-57
2023/09/01 10:01:16;;;;;;;;;;;;;;;27.29;42.40;94348.22;4993149;28;9073;-56
2023/09/01 10:03:43;;;;;;;;;;;;;;;27.31;42.62;94355.97;4970412;28;7661;-57
2023/09/01 10:06:19;;;;;;;;;;;;;;;27.30;42.99;94344.16;4955150;28;7488;-56
2023/09/01 10:09:01;;;;;;;;;;;;;;;27.27;44.13;94345.22;4952337;28;9745;-57
2023/09/01 10:12:05;;;;;;;;;;;;;;;27.28;43.85;94345.97;4968958;28;9087;-57
2023/09/01 10:14:37;;;;;;;;;;;;;;;27.27;43.29;94342.47;4962155;28;7900;-57
2023/09/01 10:17:05;;;;;;;;;;;;;;;27.31;43.24;94334.63;4965805;28;9111;-57
2023/09/01 10:19:43;;;;;;;;;;;;;;;27.33;42.73;94337.63;4950198;28;7347;-57
2023/09/01 10:22:16;;;;;;;;;;;;;;;27.33;42.95;94334.09;4971084;28;6919;-57
2023/09/01 10:25:38;;;;;;;;;;;;;;;27.33;42.35;94332.09;4954268;28;9479;-62
2023/09/01 10:28:14;;;;;;;;;;;;;;;27.35;42.58;94326.81;4966734;28;9093;-61
2023/09/01 10:30:44;;;;;;;;;;;;;;;27.35;42.14;94324.06;4978759;28;7741;-62
2023/09/01 10:33:16;;;;;;;;;;;;;;;27.36;41.77;94322.03;4995645;28;8941;-62
2023/09/01 10:35:57;;;;;;;;;;;;;;;27.36;41.62;94324.81;4983101;28;7706;-62
2023/09/01 10:38:41;;;;;;;;;;;;;;;27.39;41.38;94320.97;5006435;28;7224;-62
2023/09/01 10:41:45;;;;;;;;;;;;;;;27.39;41.39;94324.50;5053078;28;7273;-61
2023/09/01 10:44:16;;;;;;;;;;;;;;;27.40;41.48;94320.47;5044821;28;7783;-61
2023/09/01 10:47:31;;;;;;;;;;;;;;;27.40;41.78;94319.72;5042224;28;8810;-62
2023/09/01 10:50:06;;;;;;;;;;;;;;;27.38;41.69;94308.44;5056611;28;7548;-61
2023/09/01 10:53:09;;;;;;;;;;;;;;;27.40;41.55;94314.94;5063797;28;7230;-62
2023/09/01 10:56:05;;;;;;;;;;;;;;;27.42;41.67;94317.94;5045843;28;7084;-62
2023/09/01 10:58:47;;;;;;;;;;;;;;;27.40;41.52;94314.94;5049997;28;7182;-62
2023/09/01 11:01:36;;;;;;;;;;;;;;;27.43;41.37;94313.88;5071441;28;7930;-61
2023/09/01 11:04:22;;;;;;;;;;;;;;;27.44;41.23;94318.16;5039749;28;7189;-62
2023/09/01 11:06:56;;;;;;;;;;;;;;;27.46;41.08;94309.31;5068172;28;9297;-62
2023/09/01 11:09:57;;;;;;;;;;;;;;;27.48;41.38;94313.06;5048159;28;7083;-61
2023/09/01 11:12:34;;;;;;;;;;;;;;;27.49;41.16;94314.53;5015279;28;7166;-62
2023/09/01 11:15:17;;;;;;;;;;;;;;;27.50;40.99;94318.81;5023147;28;7267;-62
2023/09/01 11:17:57;;;;;;;;;;;;;;;27.51;41.09;94312.00;5023853;28;9110;-62
2023/09/01 11:20:37;;;;;;;;;;;;;;;27.52;41.01;94313.50;5024072;28;7002;-62
2023/09/01 11:23:52;;;;;;;;;;;;;;;27.53;41.17;94311.50;5008048;28;7220;-62
2023/09/01 11:26:29;;;;;;;;;;;;;;;27.56;40.48;94308.41;4974808;28;7480;-62
2023/09/01 11:29:15;;;;;;;;;;;;;;;27.58;41.20;94302.34;4960375;28;7120;-62
2023/09/01 11:31:43;;;;;;;;;;;;;;;27.57;41.00;94296.09;4953635;28;7236;-61
2023/09/01 11:34:10;;;;;;;;;;;;;;;27.61;40.60;94304.06;4973183;28;7069;-62
2023/09/01 11:36:50;;;;;;;;;;;;;;;27.61;41.00;94301.31;4955098;28;7178;-62
2023/09/01 11:39:30;;;;;;;;;;;;;;;27.62;40.93;94300.78;4953705;28;8941;-63
2023/09/01 11:42:11;;;;;;;;;;;;;;;27.63;40.98;94296.00;4966081;28;7877;-63
2023/09/01 11:45:08;;;;;;;;;;;;;;;27.66;41.11;94291.44;4956959;28;7038;-62
2023/09/01 11:48:04;;;;;;;;;;;;;;;27.66;40.59;94291.44;4956478;28;7200;-62
2023/09/01 11:50:45;;;;;;;;;;;;;;;27.66;40.80;94283.91;4944298;28;6928;-62
2023/09/01 11:53:22;;;;;;;;;;;;;;;27.65;40.78;94279.63;4937186;28;7521;-63
2023/09/01 11:55:58;;;;;;;;;;;;;;;27.70;40.73;94286.34;4933301;28;7166;-63
2023/09/01 11:58:44;;;;;;;;;;;;;;;27.69;41.57;94282.09;4945454;28;7148;-63
2023/09/01 12:01:17;;;;;;;;;;;;;;;27.69;41.07;94284.88;4932039;28;7392;-63
2023/09/01 12:03:47;;;;;;;;;;;;;;;27.71;40.88;94282.31;4963828;28;7060;-63
2023/09/01 12:06:27;;;;;;;;;;;;;;;27.70;41.53;94283.59;4967733;28;9085;-64
2023/09/01 12:09:12;;;;;;;;;;;;;;;27.72;41.02;94281.03;4971331;28;7002;-63
2023/09/01 12:12:12;;;;;;;;;;;;;;;27.70;40.98;94280.81;4955786;28;7974;-63
2023/09/01 12:15:07;;;;;;;;;;;;;;;27.70;41.43;94280.81;4954406;28;7208;-62
2023/09/01 12:17:42;;;;;;;;;;;;;;;27.68;40.76;94280.59;4950761;28;8969;-63
2023/09/01 12:20:08;;;;;;;;;;;;;;;27.68;41.33;94283.38;4953563;28;7950;-62
2023/09/01 12:22:39;;;;;;;;;;;;;;;27.66;41.76;94278.38;4953588;28;7265;-62
2023/09/01 12:25:08;;;;;;;;;;;;;;;27.68;41.36;94275.06;4953141;28;7080;-63
2023/09/01 12:27:48;;;;;;;;;;;;;;;27.71;41.20;94274.75;4996472;28;9027;-63
2023/09/01 12:30:27;;;;;;;;;;;;;;;27.69;41.11;94263.50;4996073;28;7022;-63
2023/09/01 12:32:53;;;;;;;;;;;;;;;27.74;41.26;94273.72;5014098;28;7262;-63
2023/09/01 12:35:31;;;;;;;;;;;;;;;27.75;40.91;94269.69;5012444;28;9107;-62
2023/09/01 12:37:57;;;;;;;;;;;;;;;27.75;41.50;94271.69;5003080;28;7853;-62
2023/09/01 12:40:58;;;;;;;;;;;;;;;27.78;41.47;94267.88;5006830;28;9073;-62
2023/09/01 12:44:08;;;;;;;;;;;;;;;27.81;41.25;94269.59;4968448;28;7262;-62
2023/09/01 12:46:47;;;;;;;;;;;;;;;27.81;41.21;94264.81;4972552;28;7352;-62
2023/09/01 12:49:48;;;;;;;;;;;;;;;27.83;41.02;94270.53;4956244;28;8845;-62
2023/09/01 12:52:15;;;;;;;;;;;;;;;27.84;41.33;94274.06;4925954;29;7295;-62
2023/09/01 12:54:53;;;;;;;;;;;;;;;27.84;41.06;94265.78;4933626;29;7269;-62
2023/09/01 12:57:34;;;;;;;;;;;;;;;27.86;41.33;94260.47;4917567;29;9232;-62
2023/09/01 13:00:36;;;;;;;;;;;;;;;27.90;40.78;94260.88;4921647;28;7236;-62
2023/09/01 13:03:03;;;;;;;;;;;;;;;27.92;41.82;94259.09;4902006;29;7218;-62
2023/09/01 13:05:32;;;;;;;;;;;;;;;27.93;41.30;94260.56;4897555;29;7566;-62
2023/09/01 13:08:07;;;;;;;;;;;;;;;27.94;41.49;94259.31;4887973;29;9109;-62
2023/09/01 13:10:35;;;;;;;;;;;;;;;27.93;41.67;94251.53;4878343;29;7110;-62
2023/09/01 13:13:14;;;;;;;;;;;;;;;27.98;41.23;94259.75;4875490;29;8748;-62
2023/09/01 13:15:40;;;;;;;;;;;;;;;28.02;41.04;94257.41;4893011;29;7268;-62
2023/09/01 13:18:08;;;;;;;;;;;;;;;28.03;41.23;94255.41;4898319;28;8399;-62
2023/09/01 13:20:33;;;;;;;;;;;;;;;28.07;40.68;94248.28;4964855;28;7240;-62
2023/09/01 13:22:59;;;;;;;;;;;;;;;28.12;41.12;94249.47;4966109;28;7329;-62
2023/09/01 13:25:27;;;;;;;;;;;;;;;28.16;41.31;94244.34;4968007;28;7358;-62
2023/09/01 13:28:07;;;;;;;;;;;;;;;28.19;40.91;94244.03;4976006;28;8975;-63
2023/09/01 13:30:52;;;;;;;;;;;;;;;28.24;41.00;94242.44;4959885;28;7533;-62
2023/09/01 13:33:40;;;;;;;;;;;;;;;28.30;41.23;94248.59;4972018;28;8949;-63
2023/09/01 13:36:09;;;;;;;;;;;;;;;28.31;41.14;94252.88;4994334;28;7216;-62
2023/09/01 13:38:39;;;;;;;;;;;;;;;28.32;41.56;94248.81;5039861;28;8966;-62
2023/09/01 13:41:23;;;;;;;;;;;;;;;28.29;40.57;94247.88;5039440;28;7834;-62
2023/09/01 13:44:15;;;;;;;;;;;;;;;28.31;40.31;94250.09;5047420;28;7046;-62
2023/09/01 13:46:43;;;;;;;;;;;;;;;28.31;40.65;94241.81;5051554;28;8440;-63
2023/09/01 13:49:19;;;;;;;;;;;;;;;28.35;40.46;94242.22;5057518;28;9172;-62
2023/09/01 13:51:47;;;;;;;;;;;;;;;28.35;40.33;94234.69;5035790;28;7137;-62